Terminal Aerodrome Forecast
Issued by NWS Upton, NY

Home | Current Version | Previous Version | Text Only | Print | Product List | Glossary On
Versions: 1 2 3 4 5 6 7 8 9 10 11 12 13 14 15 16 17 18 19 20 21 22 23 24 25 26 27 28 29
000
FTUS41 KOKX 041750 CCA
TAFLGA
TAF COR
KLGA 041750Z 0418/0518 33012KT P6SM FEW050 SCT250
     FM042200 35006KT P6SM BKN250
     FM050200 VRB04KT P6SM BKN150 BKN250
     FM050700 13005KT 6SM -RA SCT030 OVC080
     FM050900 13005KT 4SM -RA SCT015 BKN025
     FM051500 21008KT 6SM BR SCT015 BKN025=

USA.gov is the U.S. government's official web portal to all federal, state and local government web resources and services.